Time;durP1;ratioP1;P1;durP2;ratioP2;P2;SDS_P1;SDS_P2;PMS_P1;PMS_P2;Temp;Humidity;BMP_temperature;BMP_pressure;BME280_temperature;BME280_humidity;BME280_pressure;Samples;Min_cycle;Max_cycle;Signal;HPM_P1;HPM_P2
2023/12/25 00:00:18;;;;;;;2.15;1.30;;;;;;;;;;2082426;28;20433;-76
2023/12/25 00:01:37;;;;;;;1.88;1.60;;;;;;;;;;2079899;28;20062;-78
2023/12/25 00:02:56;;;;;;;3.88;1.50;;;;;;;;;;2091023;28;20097;-78
2023/12/25 00:04:15;;;;;;;2.40;1.33;;;;;;;;;;2092537;28;20073;-76
2023/12/25 00:05:34;;;;;;;1.80;1.20;;;;;;;;;;2093777;28;20136;-76
2023/12/25 00:06:54;;;;;;;3.45;1.50;;;;;;;;;;2083588;28;20021;-76
2023/12/25 00:08:13;;;;;;;2.08;1.42;;;;;;;;;;2076823;28;20030;-76
2023/12/25 00:09:31;;;;;;;2.22;1.30;;;;;;;;;;2081994;28;20033;-76
2023/12/25 00:10:50;;;;;;;2.50;1.23;;;;;;;;;;2083785;28;20022;-77
2023/12/25 00:12:09;;;;;;;1.95;1.23;;;;;;;;;;2087461;28;20021;-76
2023/12/25 00:13:28;;;;;;;1.30;1.20;;;;;;;;;;2091563;28;20025;-76
2023/12/25 00:14:47;;;;;;;4.05;1.40;;;;;;;;;;2084593;28;20033;-79
2023/12/25 00:16:07;;;;;;;2.92;1.10;;;;;;;;;;2088392;28;20057;-78
2023/12/25 00:17:26;;;;;;;3.15;1.13;;;;;;;;;;2093524;28;20093;-76
2023/12/25 00:18:45;;;;;;;1.92;1.33;;;;;;;;;;2081769;28;20018;-76
2023/12/25 00:20:04;;;;;;;2.20;1.25;;;;;;;;;;2078908;28;20022;-76
2023/12/25 00:21:23;;;;;;;1.50;1.40;;;;;;;;;;2076694;28;20057;-77
2023/12/25 00:22:42;;;;;;;5.95;1.50;;;;;;;;;;2083594;28;20375;-77
2023/12/25 00:24:01;;;;;;;1.85;1.27;;;;;;;;;;2078887;28;20511;-76
2023/12/25 00:25:20;;;;;;;2.78;1.15;;;;;;;;;;2082051;28;20034;-76
2023/12/25 00:26:40;;;;;;;3.85;1.58;;;;;;;;;;2076917;28;20021;-76
2023/12/25 00:27:59;;;;;;;3.60;1.38;;;;;;;;;;2079609;28;20060;-76
2023/12/25 00:29:18;;;;;;;3.78;1.70;;;;;;;;;;2081406;28;20041;-77
2023/12/25 00:30:37;;;;;;;1.85;1.50;;;;;;;;;;2075094;28;20042;-78
2023/12/25 00:31:56;;;;;;;2.65;1.10;;;;;;;;;;2073482;28;20038;-75
2023/12/25 00:33:14;;;;;;;1.55;1.15;;;;;;;;;;2079070;28;20029;-76
2023/12/25 00:34:33;;;;;;;2.60;1.48;;;;;;;;;;2073102;28;20034;-76
2023/12/25 00:35:53;;;;;;;2.70;1.20;;;;;;;;;;2078227;28;20112;-76
2023/12/25 00:37:12;;;;;;;3.17;1.45;;;;;;;;;;2079371;28;20415;-76
2023/12/25 00:38:31;;;;;;;4.20;1.27;;;;;;;;;;2079936;28;20026;-76
2023/12/25 00:39:50;;;;;;;2.28;1.20;;;;;;;;;;2081247;28;20021;-76
2023/12/25 00:41:09;;;;;;;1.60;1.08;;;;;;;;;;2080552;28;20026;-76
2023/12/25 00:42:28;;;;;;;1.63;1.23;;;;;;;;;;2080176;28;20041;-77
2023/12/25 00:43:47;;;;;;;3.13;1.25;;;;;;;;;;2080737;28;20391;-76
2023/12/25 00:45:06;;;;;;;2.08;1.38;;;;;;;;;;2074501;28;20030;-76
2023/12/25 00:46:26;;;;;;;4.60;1.42;;;;;;;;;;2077465;28;20048;-77
2023/12/25 00:47:45;;;;;;;1.85;1.15;;;;;;;;;;2080392;28;20029;-76
2023/12/25 00:49:04;;;;;;;1.67;1.40;;;;;;;;;;2081862;28;20034;-77
2023/12/25 00:50:23;;;;;;;2.50;1.77;;;;;;;;;;2074468;28;20507;-77
2023/12/25 00:51:42;;;;;;;2.75;1.35;;;;;;;;;;2070086;28;20516;-76
2023/12/25 00:53:01;;;;;;;1.80;1.38;;;;;;;;;;2077327;28;20827;-76
2023/12/25 00:54:20;;;;;;;2.22;1.30;;;;;;;;;;2081141;28;20494;-77
2023/12/25 00:55:39;;;;;;;2.88;1.52;;;;;;;;;;2081182;28;20061;-77
2023/12/25 00:56:58;;;;;;;2.15;1.50;;;;;;;;;;2075871;28;20030;-76
2023/12/25 00:58:19;;;;;;;2.05;1.63;;;;;;;;;;2070928;28;20034;-77
2023/12/25 00:59:38;;;;;;;2.47;1.50;;;;;;;;;;2075862;28;20033;-76
2023/12/25 01:00:57;;;;;;;1.50;1.30;;;;;;;;;;2079282;28;20037;-76
2023/12/25 01:02:16;;;;;;;1.63;1.20;;;;;;;;;;2073805;28;20100;-77
2023/12/25 01:03:35;;;;;;;2.88;1.50;;;;;;;;;;2070979;28;20038;-76
2023/12/25 01:04:54;;;;;;;1.85;1.40;;;;;;;;;;2077936;28;20063;-76
2023/12/25 01:06:13;;;;;;;2.03;1.50;;;;;;;;;;2079694;28;20502;-76
2023/12/25 01:07:32;;;;;;;6.68;1.98;;;;;;;;;;2075008;28;20046;-76
2023/12/25 01:08:50;;;;;;;2.17;1.63;;;;;;;;;;2074939;28;20519;-76
2023/12/25 01:10:09;;;;;;;4.43;1.58;;;;;;;;;;2071116;28;20033;-76
2023/12/25 01:11:28;;;;;;;1.40;1.30;;;;;;;;;;2068360;28;20042;-76
2023/12/25 01:12:47;;;;;;;2.97;1.42;;;;;;;;;;2077062;28;21400;-78
2023/12/25 01:14:06;;;;;;;2.03;1.58;;;;;;;;;;2076305;28;20034;-77
2023/12/25 01:15:25;;;;;;;3.50;1.60;;;;;;;;;;2065994;28;20420;-76
2023/12/25 01:16:44;;;;;;;2.55;1.50;;;;;;;;;;2069140;28;20037;-77
2023/12/25 01:18:03;;;;;;;2.55;1.40;;;;;;;;;;2077260;28;20518;-76
2023/12/25 01:19:22;;;;;;;2.05;1.45;;;;;;;;;;2079416;28;20029;-76
2023/12/25 01:20:41;;;;;;;4.15;1.65;;;;;;;;;;2081387;28;20029;-77
2023/12/25 01:22:00;;;;;;;2.30;1.35;;;;;;;;;;2076784;28;20483;-76
2023/12/25 01:23:18;;;;;;;1.98;1.50;;;;;;;;;;2072734;28;20045;-76
2023/12/25 01:24:37;;;;;;;2.70;1.33;;;;;;;;;;2075941;28;20498;-77
2023/12/25 01:25:56;;;;;;;3.95;1.42;;;;;;;;;;2079143;28;20215;-77
2023/12/25 01:27:15;;;;;;;3.60;1.70;;;;;;;;;;2080270;28;20392;-76
2023/12/25 01:28:34;;;;;;;1.67;1.17;;;;;;;;;;2080408;28;20041;-76
2023/12/25 01:29:53;;;;;;;4.05;1.60;;;;;;;;;;2080999;28;20033;-76
2023/12/25 01:31:12;;;;;;;1.90;1.38;;;;;;;;;;2079295;28;20499;-76
2023/12/25 01:32:31;;;;;;;3.55;1.30;;;;;;;;;;2079351;28;20076;-76
2023/12/25 01:33:50;;;;;;;1.70;1.52;;;;;;;;;;2080540;28;20061;-77
2023/12/25 01:35:10;;;;;;;5.55;1.90;;;;;;;;;;2071886;28;20951;-76
2023/12/25 01:36:29;;;;;;;5.55;2.30;;;;;;;;;;2072383;28;20423;-76
2023/12/25 01:37:48;;;;;;;7.40;4.68;;;;;;;;;;2072764;28;20030;-78
2023/12/25 01:39:06;;;;;;;5.72;2.80;;;;;;;;;;2071564;28;20022;-76
2023/12/25 01:40:25;;;;;;;3.95;1.88;;;;;;;;;;2077333;28;20557;-75
2023/12/25 01:41:44;;;;;;;3.17;1.90;;;;;;;;;;2079367;28;20018;-76
2023/12/25 01:43:03;;;;;;;3.17;2.38;;;;;;;;;;2080859;28;20033;-77
2023/12/25 01:44:22;;;;;;;3.20;1.90;;;;;;;;;;2074662;28;20043;-78
2023/12/25 01:45:40;;;;;;;3.15;1.90;;;;;;;;;;2078556;28;20041;-76
2023/12/25 01:46:59;;;;;;;2.00;1.70;;;;;;;;;;2075867;28;20116;-76
2023/12/25 01:48:19;;;;;;;2.80;2.25;;;;;;;;;;2071493;28;20034;-76
2023/12/25 01:49:37;;;;;;;3.17;1.92;;;;;;;;;;2076548;28;20049;-77
2023/12/25 01:50:59;;;;;;;4.47;1.95;;;;;;;;;;2079445;28;20065;-76
2023/12/25 01:52:18;;;;;;;2.05;1.80;;;;;;;;;;2075334;28;20046;-76
2023/12/25 01:53:38;;;;;;;2.60;1.75;;;;;;;;;;2069936;28;20034;-76
2023/12/25 01:54:57;;;;;;;5.40;2.35;;;;;;;;;;2079408;28;20041;-76
2023/12/25 01:56:17;;;;;;;4.40;1.90;;;;;;;;;;2080886;28;20061;-77
2023/12/25 01:57:36;;;;;;;3.90;1.80;;;;;;;;;;2076189;28;20037;-76
2023/12/25 01:58:55;;;;;;;3.15;2.00;;;;;;;;;;2076681;28;20109;-76
2023/12/25 02:00:14;;;;;;;2.85;1.85;;;;;;;;;;2078812;28;20034;-76
2023/12/25 02:01:33;;;;;;;4.30;1.83;;;;;;;;;;2079806;28;20130;-77
2023/12/25 02:02:52;;;;;;;4.20;2.03;;;;;;;;;;2080783;28;20443;-76
2023/12/25 02:04:11;;;;;;;2.38;1.88;;;;;;;;;;2081826;28;20077;-76
2023/12/25 02:05:30;;;;;;;4.20;1.95;;;;;;;;;;2076685;28;20026;-76
2023/12/25 02:06:50;;;;;;;3.35;1.63;;;;;;;;;;2070902;28;20034;-76
2023/12/25 02:08:13;;;;;;;6.78;1.92;;;;;;;;;;2075143;28;20422;-76
2023/12/25 02:09:32;;;;;;;5.05;1.90;;;;;;;;;;2080028;28;20033;-74
2023/12/25 02:10:51;;;;;;;2.55;1.80;;;;;;;;;;2080124;28;20034;-74
2023/12/25 02:12:10;;;;;;;5.13;1.90;;;;;;;;;;2079038;28;20033;-75
2023/12/25 02:13:29;;;;;;;3.30;1.70;;;;;;;;;;2079392;28;20029;-75
2023/12/25 02:14:48;;;;;;;5.68;2.33;;;;;;;;;;2081925;28;20042;-75
2023/12/25 02:16:07;;;;;;;7.35;2.13;;;;;;;;;;2075162;28;20042;-75
2023/12/25 02:17:26;;;;;;;4.78;2.40;;;;;;;;;;2078082;28;20120;-74
2023/12/25 02:18:45;;;;;;;3.60;2.15;;;;;;;;;;2073495;28;20029;-74
2023/12/25 02:20:05;;;;;;;4.53;2.35;;;;;;;;;;2071165;28;20049;-74
2023/12/25 02:21:24;;;;;;;1.85;1.63;;;;;;;;;;2076381;28;20034;-76
2023/12/25 02:22:44;;;;;;;4.32;2.15;;;;;;;;;;2078522;28;20026;-77
2023/12/25 02:24:05;;;;;;;2.97;2.20;;;;;;;;;;2079151;28;20022;-76
2023/12/25 02:25:31;;;;;;;3.17;2.33;;;;;;;;;;2081987;28;20029;-76
2023/12/25 02:26:51;;;;;;;8.80;2.08;;;;;;;;;;2077395;28;20022;-76
2023/12/25 02:28:10;;;;;;;3.42;2.08;;;;;;;;;;2078873;28;20025;-76
2023/12/25 02:29:29;;;;;;;2.50;2.10;;;;;;;;;;2076336;28;20053;-76
2023/12/25 02:30:48;;;;;;;3.63;1.95;;;;;;;;;;2078367;28;20038;-77
2023/12/25 02:32:07;;;;;;;3.67;1.95;;;;;;;;;;2080627;28;20442;-76
2023/12/25 02:33:26;;;;;;;2.83;2.20;;;;;;;;;;2079505;28;20034;-76
2023/12/25 02:34:47;;;;;;;2.45;1.88;;;;;;;;;;2073142;28;20431;-76
2023/12/25 02:36:06;;;;;;;5.32;1.95;;;;;;;;;;2075723;28;20446;-74
2023/12/25 02:37:25;;;;;;;3.67;2.47;;;;;;;;;;2074719;28;20053;-75
2023/12/25 02:38:44;;;;;;;3.10;2.03;;;;;;;;;;2078888;28;20022;-74
2023/12/25 02:40:03;;;;;;;4.05;1.70;;;;;;;;;;2073303;28;20029;-75
2023/12/25 02:41:22;;;;;;;6.28;2.33;;;;;;;;;;2078481;28;20037;-74
2023/12/25 02:42:41;;;;;;;4.63;1.83;;;;;;;;;;2078294;28;20021;-74
2023/12/25 02:44:00;;;;;;;5.47;2.17;;;;;;;;;;2078838;28;20038;-75
2023/12/25 02:45:19;;;;;;;2.35;1.92;;;;;;;;;;2075237;28;20026;-74
2023/12/25 02:46:39;;;;;;;4.00;1.92;;;;;;;;;;2077860;28;20096;-76
2023/12/25 02:47:58;;;;;;;2.83;2.10;;;;;;;;;;2079189;28;20446;-75
2023/12/25 02:49:17;;;;;;;3.30;1.90;;;;;;;;;;2080703;28;20037;-75
2023/12/25 02:50:36;;;;;;;2.42;1.80;;;;;;;;;;2074336;28;20116;-74
2023/12/25 02:51:55;;;;;;;5.22;2.05;;;;;;;;;;2075663;28;20065;-75
2023/12/25 02:53:14;;;;;;;5.93;2.00;;;;;;;;;;2069659;28;20064;-74
2023/12/25 02:54:32;;;;;;;5.13;2.10;;;;;;;;;;2070912;28;20029;-75
2023/12/25 02:55:51;;;;;;;4.40;1.90;;;;;;;;;;2078636;28;20383;-74
2023/12/25 02:57:10;;;;;;;4.30;1.90;;;;;;;;;;2073942;28;20033;-74
2023/12/25 02:58:29;;;;;;;3.88;1.90;;;;;;;;;;2076122;28;20029;-74
2023/12/25 02:59:49;;;;;;;2.63;1.60;;;;;;;;;;2076267;28;20029;-76
2023/12/25 03:01:08;;;;;;;2.40;1.90;;;;;;;;;;2077571;28;20041;-74
2023/12/25 03:02:28;;;;;;;5.50;1.83;;;;;;;;;;2079397;28;20026;-76
2023/12/25 03:03:46;;;;;;;5.43;2.08;;;;;;;;;;2080274;28;20022;-74
2023/12/25 03:05:06;;;;;;;3.78;1.92;;;;;;;;;;2079823;28;20033;-75
2023/12/25 03:06:25;;;;;;;4.43;1.70;;;;;;;;;;2078884;28;20037;-75
2023/12/25 03:07:43;;;;;;;4.13;1.73;;;;;;;;;;2081424;28;20033;-74
2023/12/25 03:09:03;;;;;;;4.65;1.90;;;;;;;;;;2078336;28;20030;-74
2023/12/25 03:10:22;;;;;;;3.63;1.80;;;;;;;;;;2072248;28;20030;-75
2023/12/25 03:11:40;;;;;;;3.45;1.65;;;;;;;;;;2076196;28;20026;-74
2023/12/25 03:12:59;;;;;;;3.53;1.92;;;;;;;;;;2081298;28;20057;-75
2023/12/25 03:14:19;;;;;;;2.70;1.73;;;;;;;;;;2080278;28;20054;-74
2023/12/25 03:15:37;;;;;;;5.05;1.80;;;;;;;;;;2074579;28;20025;-74
2023/12/25 03:16:56;;;;;;;4.30;2.10;;;;;;;;;;2072451;28;20108;-74
2023/12/25 03:18:15;;;;;;;4.78;2.35;;;;;;;;;;2070252;28;20881;-75
2023/12/25 03:19:34;;;;;;;4.10;2.00;;;;;;;;;;2077571;28;20379;-74
2023/12/25 03:20:54;;;;;;;3.53;2.25;;;;;;;;;;2080988;28;20475;-74
2023/12/25 03:22:12;;;;;;;3.67;2.03;;;;;;;;;;2079890;28;20022;-75
2023/12/25 03:23:31;;;;;;;6.30;2.05;;;;;;;;;;2078950;28;20382;-75
2023/12/25 03:24:50;;;;;;;3.95;2.03;;;;;;;;;;2079658;28;20383;-74
2023/12/25 03:26:09;;;;;;;5.00;2.00;;;;;;;;;;2074467;28;20514;-75
2023/12/25 03:27:28;;;;;;;4.22;1.98;;;;;;;;;;2071786;28;20034;-75
2023/12/25 03:28:46;;;;;;;5.15;1.75;;;;;;;;;;2077378;28;20057;-74
2023/12/25 03:30:06;;;;;;;3.58;1.98;;;;;;;;;;2073626;28;20026;-75
2023/12/25 03:31:24;;;;;;;6.93;1.83;;;;;;;;;;2069434;28;20037;-74
2023/12/25 03:32:44;;;;;;;5.40;2.17;;;;;;;;;;2077135;28;20037;-74
2023/12/25 03:34:03;;;;;;;4.97;2.17;;;;;;;;;;2078661;28;20038;-74
2023/12/25 03:35:22;;;;;;;3.75;2.05;;;;;;;;;;2079601;28;20034;-74
2023/12/25 03:36:42;;;;;;;4.05;1.88;;;;;;;;;;2074634;28;20033;-75
2023/12/25 03:38:00;;;;;;;3.38;1.92;;;;;;;;;;2077897;28;20033;-75
2023/12/25 03:39:19;;;;;;;4.32;1.95;;;;;;;;;;2079667;28;20033;-75
2023/12/25 03:40:39;;;;;;;3.42;1.88;;;;;;;;;;2077873;28;20033;-74
2023/12/25 03:41:58;;;;;;;2.63;1.83;;;;;;;;;;2079685;28;20076;-74
2023/12/25 03:43:17;;;;;;;4.15;1.80;;;;;;;;;;2080654;28;20025;-74
2023/12/25 03:44:36;;;;;;;4.07;2.20;;;;;;;;;;2081273;28;20010;-75
2023/12/25 03:45:56;;;;;;;7.22;1.98;;;;;;;;;;2086936;28;20026;-75
2023/12/25 03:47:15;;;;;;;3.00;1.98;;;;;;;;;;2089401;28;20017;-76
2023/12/25 03:48:34;;;;;;;4.45;2.17;;;;;;;;;;2085128;28;20057;-76
2023/12/25 03:49:53;;;;;;;4.90;1.77;;;;;;;;;;2080394;28;20026;-74
2023/12/25 03:51:12;;;;;;;4.65;1.92;;;;;;;;;;2071282;28;20030;-75
2023/12/25 03:52:32;;;;;;;6.47;2.22;;;;;;;;;;2073847;28;20116;-74
2023/12/25 03:53:51;;;;;;;4.85;2.00;;;;;;;;;;2080960;28;20487;-75
2023/12/25 03:55:10;;;;;;;5.43;2.10;;;;;;;;;;2079157;28;20022;-75
2023/12/25 03:56:29;;;;;;;2.22;1.98;;;;;;;;;;2086534;28;20025;-75
2023/12/25 03:57:48;;;;;;;5.35;2.20;;;;;;;;;;2087706;28;20010;-76
2023/12/25 03:59:10;;;;;;;2.95;1.90;;;;;;;;;;2089428;28;20025;-74
2023/12/25 04:00:29;;;;;;;2.45;1.63;;;;;;;;;;2086843;28;20171;-76
2023/12/25 04:01:48;;;;;;;2.60;2.10;;;;;;;;;;2079129;28;20427;-74
2023/12/25 04:03:07;;;;;;;3.15;2.30;;;;;;;;;;2083648;28;20041;-74
2023/12/25 04:04:26;;;;;;;4.72;1.70;;;;;;;;;;2084364;28;20491;-75
2023/12/25 04:05:45;;;;;;;5.72;2.00;;;;;;;;;;2079251;28;20030;-74
2023/12/25 04:07:05;;;;;;;5.30;2.30;;;;;;;;;;2076950;28;20065;-74
2023/12/25 04:08:24;;;;;;;4.90;2.05;;;;;;;;;;2081031;28;20030;-76
2023/12/25 04:09:43;;;;;;;3.45;2.30;;;;;;;;;;2081837;28;20069;-75
2023/12/25 04:11:02;;;;;;;5.60;2.03;;;;;;;;;;2082935;28;20041;-74
2023/12/25 04:12:21;;;;;;;3.67;2.20;;;;;;;;;;2080768;28;20022;-75
2023/12/25 04:13:40;;;;;;;5.75;2.20;;;;;;;;;;2080558;28;20101;-75
2023/12/25 04:14:59;;;;;;;4.40;1.98;;;;;;;;;;2073707;28;20038;-74
2023/12/25 04:16:22;;;;;;;4.55;2.17;;;;;;;;;;2079392;28;20037;-74
2023/12/25 04:17:42;;;;;;;3.90;2.03;;;;;;;;;;2082384;28;20030;-74
2023/12/25 04:19:01;;;;;;;5.05;2.20;;;;;;;;;;2078006;28;20017;-74
2023/12/25 04:20:20;;;;;;;4.05;2.10;;;;;;;;;;2077783;28;20057;-74
2023/12/25 04:21:39;;;;;;;4.80;2.28;;;;;;;;;;2080862;28;20021;-75
2023/12/25 04:22:58;;;;;;;4.80;2.35;;;;;;;;;;2080307;28;20513;-75
2023/12/25 04:24:17;;;;;;;5.53;2.10;;;;;;;;;;2080854;28;20510;-75
2023/12/25 04:25:36;;;;;;;3.25;2.08;;;;;;;;;;2081143;28;20034;-74
2023/12/25 04:26:55;;;;;;;6.20;2.25;;;;;;;;;;2082320;28;20399;-74
2023/12/25 04:28:14;;;;;;;2.70;2.20;;;;;;;;;;2072955;28;20026;-75
2023/12/25 04:29:33;;;;;;;3.17;2.35;;;;;;;;;;2078920;28;20499;-74
2023/12/25 04:30:52;;;;;;;4.65;2.42;;;;;;;;;;2079056;28;20033;-75
2023/12/25 04:32:11;;;;;;;7.57;2.17;;;;;;;;;;2076758;28;20029;-75
2023/12/25 04:33:30;;;;;;;8.02;2.22;;;;;;;;;;2079069;28;20068;-74
2023/12/25 04:34:49;;;;;;;9.20;2.35;;;;;;;;;;2073137;28;20484;-74
2023/12/25 04:36:08;;;;;;;5.07;2.42;;;;;;;;;;2078780;28;20025;-74
2023/12/25 04:37:27;;;;;;;2.95;2.03;;;;;;;;;;2076589;28;20415;-75
2023/12/25 04:38:46;;;;;;;2.90;2.47;;;;;;;;;;2078184;28;20463;-74
2023/12/25 04:40:05;;;;;;;5.32;2.45;;;;;;;;;;2073491;28;20025;-74
2023/12/25 04:41:24;;;;;;;4.40;2.20;;;;;;;;;;2070492;28;20030;-74
2023/12/25 04:42:44;;;;;;;4.45;2.63;;;;;;;;;;2077692;28;20597;-75
2023/12/25 04:44:03;;;;;;;6.47;2.30;;;;;;;;;;2076146;28;20030;-75
2023/12/25 04:45:22;;;;;;;3.00;2.42;;;;;;;;;;2080017;28;20026;-74
2023/12/25 04:46:41;;;;;;;6.53;2.53;;;;;;;;;;2079538;28;20030;-75
2023/12/25 04:48:00;;;;;;;5.95;2.40;;;;;;;;;;2080374;28;20025;-75
2023/12/25 04:49:19;;;;;;;7.47;2.22;;;;;;;;;;2073889;28;20388;-74
2023/12/25 04:50:38;;;;;;;7.03;2.45;;;;;;;;;;2079946;28;20479;-75
2023/12/25 04:51:57;;;;;;;5.70;2.30;;;;;;;;;;2081044;28;20395;-74
2023/12/25 04:53:16;;;;;;;3.83;1.95;;;;;;;;;;2075683;28;20057;-74
2023/12/25 04:54:35;;;;;;;3.63;2.17;;;;;;;;;;2078058;28;20294;-73
2023/12/25 04:55:55;;;;;;;2.40;1.95;;;;;;;;;;2080935;28;20025;-74
2023/12/25 04:57:14;;;;;;;4.55;2.30;;;;;;;;;;2079527;28;20108;-74
2023/12/25 04:58:32;;;;;;;2.50;2.20;;;;;;;;;;2073633;28;20554;-75
2023/12/25 04:59:52;;;;;;;2.95;2.03;;;;;;;;;;2078560;28;20037;-74
2023/12/25 05:01:11;;;;;;;3.03;2.28;;;;;;;;;;2082373;28;20034;-75
2023/12/25 05:02:29;;;;;;;5.10;2.13;;;;;;;;;;2080861;28;20030;-74
2023/12/25 05:03:48;;;;;;;8.63;2.78;;;;;;;;;;2073982;28;20022;-75
2023/12/25 05:05:07;;;;;;;4.38;2.45;;;;;;;;;;2077014;28;20026;-75
2023/12/25 05:06:26;;;;;;;5.00;2.40;;;;;;;;;;2075897;28;20386;-74
2023/12/25 05:07:45;;;;;;;4.82;2.28;;;;;;;;;;2073171;28;20068;-75
2023/12/25 05:09:04;;;;;;;3.60;2.17;;;;;;;;;;2073059;28;20053;-74
2023/12/25 05:10:23;;;;;;;6.28;2.00;;;;;;;;;;2070451;28;20026;-75
2023/12/25 05:11:42;;;;;;;6.15;2.60;;;;;;;;;;2075648;28;20124;-75
2023/12/25 05:13:01;;;;;;;4.05;2.47;;;;;;;;;;2079199;28;20033;-74
2023/12/25 05:14:20;;;;;;;5.95;2.30;;;;;;;;;;2081438;28;20053;-75
2023/12/25 05:15:39;;;;;;;6.53;2.58;;;;;;;;;;2081480;28;20068;-75
2023/12/25 05:16:58;;;;;;;3.28;2.28;;;;;;;;;;2074123;28;20626;-74
2023/12/25 05:18:17;;;;;;;5.65;2.50;;;;;;;;;;2076077;28;20042;-74
2023/12/25 05:19:36;;;;;;;10.40;2.45;;;;;;;;;;2080329;28;20030;-74
2023/12/25 05:20:55;;;;;;;6.82;3.13;;;;;;;;;;2080028;28;20038;-74
2023/12/25 05:22:15;;;;;;;5.95;2.50;;;;;;;;;;2081045;28;20424;-74
2023/12/25 05:23:33;;;;;;;6.13;2.22;;;;;;;;;;2068930;28;20138;-74
2023/12/25 05:24:53;;;;;;;4.18;2.40;;;;;;;;;;2076918;28;20041;-74
2023/12/25 05:26:12;;;;;;;5.22;2.70;;;;;;;;;;2081151;28;20017;-75
2023/12/25 05:27:31;;;;;;;7.50;2.45;;;;;;;;;;2075278;28;20037;-77
2023/12/25 05:28:50;;;;;;;4.47;2.40;;;;;;;;;;2067384;28;20051;-75
2023/12/25 05:30:10;;;;;;;3.90;2.50;;;;;;;;;;2063670;28;20487;-76
2023/12/25 05:31:29;;;;;;;4.55;2.85;;;;;;;;;;2063570;28;20034;-75
2023/12/25 05:32:49;;;;;;;6.57;2.38;;;;;;;;;;2064669;28;20052;-75
2023/12/25 05:34:08;;;;;;;5.95;2.70;;;;;;;;;;2061284;28;20034;-75
2023/12/25 05:35:26;;;;;;;5.05;2.47;;;;;;;;;;2060884;28;20420;-74
2023/12/25 05:36:45;;;;;;;5.82;2.90;;;;;;;;;;2059362;28;20030;-75
2023/12/25 05:38:04;;;;;;;5.78;2.35;;;;;;;;;;2062862;28;20462;-77
2023/12/25 05:39:24;;;;;;;7.75;2.58;;;;;;;;;;2063377;28;21164;-75
2023/12/25 05:40:43;;;;;;;6.72;2.60;;;;;;;;;;2064268;28;20030;-74
2023/12/25 05:42:02;;;;;;;5.85;2.72;;;;;;;;;;2064434;28;20030;-74
2023/12/25 05:43:21;;;;;;;7.22;2.90;;;;;;;;;;2062984;28;20038;-75
2023/12/25 05:44:40;;;;;;;10.23;2.85;;;;;;;;;;2064010;28;20035;-75
2023/12/25 05:45:59;;;;;;;3.80;2.28;;;;;;;;;;2063715;28;20105;-74
2023/12/25 05:47:17;;;;;;;6.10;2.40;;;;;;;;;;2063617;28;20035;-75
2023/12/25 05:48:36;;;;;;;5.57;2.58;;;;;;;;;;2065580;28;20117;-75
2023/12/25 05:49:55;;;;;;;7.45;2.47;;;;;;;;;;2065230;28;20049;-74
2023/12/25 05:51:14;;;;;;;4.45;2.63;;;;;;;;;;2063938;28;20038;-75
2023/12/25 05:52:33;;;;;;;5.97;2.58;;;;;;;;;;2062253;28;20105;-74
2023/12/25 05:53:52;;;;;;;6.05;2.80;;;;;;;;;;2063243;28;20492;-75
2023/12/25 05:55:11;;;;;;;7.78;2.40;;;;;;;;;;2064972;28;20050;-74
2023/12/25 05:56:30;;;;;;;7.53;3.20;;;;;;;;;;2064887;28;20026;-75
2023/12/25 05:57:49;;;;;;;6.57;2.42;;;;;;;;;;2063483;28;20054;-74
2023/12/25 05:59:08;;;;;;;9.73;2.60;;;;;;;;;;2064159;28;20022;-74
2023/12/25 06:00:28;;;;;;;6.85;2.83;;;;;;;;;;2063816;28;20035;-77
2023/12/25 06:01:47;;;;;;;5.10;2.58;;;;;;;;;;2064083;28;20019;-74
2023/12/25 06:03:06;;;;;;;4.63;2.47;;;;;;;;;;2063279;28;20113;-75
2023/12/25 06:04:25;;;;;;;5.65;2.40;;;;;;;;;;2064619;28;20448;-75
2023/12/25 06:05:44;;;;;;;5.78;2.63;;;;;;;;;;2063711;28;20030;-75
2023/12/25 06:07:03;;;;;;;8.73;2.33;;;;;;;;;;2064776;28;20121;-75
2023/12/25 06:08:22;;;;;;;7.47;3.00;;;;;;;;;;2071291;28;20431;-75
2023/12/25 06:09:41;;;;;;;6.85;2.40;;;;;;;;;;2062281;28;20030;-74
2023/12/25 06:11:00;;;;;;;5.32;2.78;;;;;;;;;;2065263;28;20030;-75
2023/12/25 06:12:19;;;;;;;7.35;2.53;;;;;;;;;;2064342;28;20026;-75
2023/12/25 06:13:38;;;;;;;3.58;2.15;;;;;;;;;;2063339;28;20030;-75
2023/12/25 06:14:57;;;;;;;6.18;2.35;;;;;;;;;;2064454;28;20026;-74
2023/12/25 06:16:17;;;;;;;6.05;2.25;;;;;;;;;;2063581;28;20062;-74
2023/12/25 06:17:36;;;;;;;5.63;2.47;;;;;;;;;;2063926;28;20038;-75
2023/12/25 06:18:55;;;;;;;3.45;2.30;;;;;;;;;;2064253;28;20488;-74
2023/12/25 06:20:14;;;;;;;5.93;2.40;;;;;;;;;;2061848;28;20030;-75
2023/12/25 06:21:33;;;;;;;5.28;2.58;;;;;;;;;;2063747;28;20396;-74
2023/12/25 06:22:52;;;;;;;6.38;2.40;;;;;;;;;;2064614;28;20496;-75
2023/12/25 06:24:11;;;;;;;5.30;2.55;;;;;;;;;;2063823;28;20030;-75
2023/12/25 06:25:30;;;;;;;2.78;2.28;;;;;;;;;;2062706;28;20030;-74
2023/12/25 06:26:49;;;;;;;3.72;2.20;;;;;;;;;;2064766;28;20035;-76
2023/12/25 06:28:08;;;;;;;3.35;2.25;;;;;;;;;;2061524;28;20026;-75
2023/12/25 06:29:27;;;;;;;3.10;1.98;;;;;;;;;;2063973;28;20054;-75
2023/12/25 06:30:46;;;;;;;3.95;2.25;;;;;;;;;;2064814;28;20026;-74
2023/12/25 06:32:05;;;;;;;5.32;2.50;;;;;;;;;;2063351;28;20022;-75
2023/12/25 06:33:24;;;;;;;5.45;2.17;;;;;;;;;;2063048;28;20034;-74
2023/12/25 06:34:43;;;;;;;5.05;2.60;;;;;;;;;;2062188;28;20575;-75
2023/12/25 06:36:02;;;;;;;4.20;2.60;;;;;;;;;;2062397;28;20026;-75
2023/12/25 06:37:21;;;;;;;4.80;2.97;;;;;;;;;;2063276;28;20026;-75
2023/12/25 06:38:40;;;;;;;5.55;2.83;;;;;;;;;;2064597;28;20138;-74
2023/12/25 06:39:59;;;;;;;8.38;2.90;;;;;;;;;;2062889;28;20022;-75
2023/12/25 06:41:18;;;;;;;4.70;2.60;;;;;;;;;;2061980;28;20387;-74
2023/12/25 06:42:37;;;;;;;7.10;2.40;;;;;;;;;;2062013;28;20034;-74
2023/12/25 06:43:56;;;;;;;10.68;2.70;;;;;;;;;;2061035;28;20031;-74
2023/12/25 06:45:15;;;;;;;9.32;3.42;;;;;;;;;;2063724;28;20022;-75
2023/12/25 06:46:35;;;;;;;6.15;2.53;;;;;;;;;;2062686;28;20023;-75
2023/12/25 06:47:55;;;;;;;11.20;3.17;;;;;;;;;;2063794;28;20058;-74
2023/12/25 06:49:14;;;;;;;4.40;2.58;;;;;;;;;;2064250;28;20061;-74
2023/12/25 06:50:32;;;;;;;6.20;2.90;;;;;;;;;;2063542;28;20059;-75
2023/12/25 06:51:51;;;;;;;7.47;2.80;;;;;;;;;;2062934;28;20454;-75
2023/12/25 06:53:10;;;;;;;4.55;2.75;;;;;;;;;;2062471;28;20018;-76
2023/12/25 06:54:29;;;;;;;9.40;2.70;;;;;;;;;;2064243;28;20031;-74
2023/12/25 06:55:48;;;;;;;5.18;2.45;;;;;;;;;;2062798;28;20063;-75
2023/12/25 06:57:07;;;;;;;5.80;2.17;;;;;;;;;;2060506;28;20065;-74
2023/12/25 06:58:26;;;;;;;7.57;2.85;;;;;;;;;;2063124;28;20030;-75
2023/12/25 06:59:45;;;;;;;5.03;2.22;;;;;;;;;;2062296;28;20097;-74
2023/12/25 07:01:06;;;;;;;10.63;2.67;;;;;;;;;;2063405;28;20026;-75
2023/12/25 07:02:25;;;;;;;6.80;2.60;;;;;;;;;;2062789;28;20031;-74
2023/12/25 07:03:44;;;;;;;9.15;2.55;;;;;;;;;;2063141;28;20499;-75
2023/12/25 07:05:04;;;;;;;5.00;2.85;;;;;;;;;;2064104;28;20034;-75
2023/12/25 07:06:23;;;;;;;5.00;2.30;;;;;;;;;;2063448;28;20512;-74
2023/12/25 07:07:42;;;;;;;6.07;2.90;;;;;;;;;;2063181;28;20042;-74
2023/12/25 07:09:01;;;;;;;5.35;2.60;;;;;;;;;;2059475;28;20026;-75
2023/12/25 07:10:20;;;;;;;6.63;2.75;;;;;;;;;;2057662;28;20031;-74
2023/12/25 07:11:38;;;;;;;6.85;2.97;;;;;;;;;;2058414;28;20420;-75
2023/12/25 07:12:57;;;;;;;5.90;2.70;;;;;;;;;;2068155;28;20042;-75
2023/12/25 07:14:16;;;;;;;7.07;2.38;;;;;;;;;;2067261;28;20448;-75
2023/12/25 07:15:37;;;;;;;4.95;2.88;;;;;;;;;;2063712;28;20030;-75
2023/12/25 07:16:55;;;;;;;6.68;2.75;;;;;;;;;;2062738;28;20126;-75
2023/12/25 07:18:14;;;;;;;9.32;3.10;;;;;;;;;;2061153;28;20502;-75
2023/12/25 07:19:33;;;;;;;7.97;3.30;;;;;;;;;;2063601;28;20042;-77
2023/12/25 07:20:52;;;;;;;5.78;2.67;;;;;;;;;;2061717;28;20022;-78
2023/12/25 07:22:11;;;;;;;5.90;2.25;;;;;;;;;;2063480;28;20026;-75
2023/12/25 07:23:30;;;;;;;5.03;2.95;;;;;;;;;;2062709;28;20524;-75
2023/12/25 07:24:49;;;;;;;4.38;2.30;;;;;;;;;;2063571;28;20031;-75
2023/12/25 07:26:08;;;;;;;5.90;2.63;;;;;;;;;;2063119;28;20492;-78
2023/12/25 07:27:27;;;;;;;4.00;2.55;;;;;;;;;;2072627;28;20038;-76
2023/12/25 07:28:47;;;;;;;3.03;2.30;;;;;;;;;;2083946;28;20072;-78
2023/12/25 07:30:06;;;;;;;6.32;3.22;;;;;;;;;;2085436;28;20025;-77
2023/12/25 07:31:25;;;;;;;3.75;2.30;;;;;;;;;;2085981;28;20014;-78
2023/12/25 07:32:44;;;;;;;4.32;2.92;;;;;;;;;;2079249;28;20034;-76
2023/12/25 07:34:03;;;;;;;4.97;2.42;;;;;;;;;;2079795;28;20029;-78
2023/12/25 07:35:22;;;;;;;6.47;3.22;;;;;;;;;;2077689;28;20431;-75
2023/12/25 07:36:41;;;;;;;3.17;2.65;;;;;;;;;;2074126;28;20021;-75
2023/12/25 07:38:00;;;;;;;7.53;2.90;;;;;;;;;;2084652;28;20013;-75
2023/12/25 07:39:19;;;;;;;4.55;2.58;;;;;;;;;;2082621;28;20030;-78
2023/12/25 07:40:38;;;;;;;5.88;2.72;;;;;;;;;;2089814;28;20026;-75
2023/12/25 07:41:57;;;;;;;6.38;2.67;;;;;;;;;;2092418;28;20098;-75
2023/12/25 07:43:17;;;;;;;6.10;2.67;;;;;;;;;;2089052;28;20045;-75
2023/12/25 07:44:39;;;;;;;6.43;2.83;;;;;;;;;;2085941;28;20093;-76
2023/12/25 07:45:58;;;;;;;6.25;2.58;;;;;;;;;;2086432;28;20037;-75
2023/12/25 07:47:17;;;;;;;4.88;2.80;;;;;;;;;;2088694;28;20038;-78
2023/12/25 07:48:36;;;;;;;8.18;3.15;;;;;;;;;;2085506;28;20033;-75
2023/12/25 07:49:54;;;;;;;5.35;2.60;;;;;;;;;;2075009;28;20058;-75
2023/12/25 07:51:13;;;;;;;6.05;2.67;;;;;;;;;;2070874;28;20022;-75
2023/12/25 07:52:32;;;;;;;6.80;2.75;;;;;;;;;;2078459;28;20045;-76
2023/12/25 07:53:51;;;;;;;6.88;2.95;;;;;;;;;;2073416;28;20446;-75